createdAt,value
2022-10-04T00:00:34.367Z,1001.19
2022-10-04T00:01:34.345Z,1001.15
2022-10-04T00:02:34.424Z,1001.17
2022-10-04T00:03:34.305Z,1001.12
2022-10-04T00:04:34.295Z,1001.19
2022-10-04T00:05:34.281Z,1001.12
2022-10-04T00:06:34.308Z,1001.14
2022-10-04T00:07:34.263Z,1001.17
2022-10-04T00:08:34.256Z,1001.18
2022-10-04T00:09:34.248Z,1001.18
2022-10-04T00:10:34.237Z,1001.17
2022-10-04T00:11:34.217Z,1001.14
2022-10-04T00:12:34.246Z,1001.12
2022-10-04T00:13:34.205Z,1001.10
2022-10-04T00:14:34.196Z,1001.08
2022-10-04T00:15:34.183Z,1001.07
2022-10-04T00:16:34.247Z,1001.08
2022-10-04T00:17:34.172Z,1001.05
2022-10-04T00:18:34.177Z,1001.08
2022-10-04T00:19:34.138Z,1001.08
2022-10-04T00:20:34.137Z,1001.08
2022-10-04T00:21:34.118Z,1001.04
2022-10-04T00:22:34.117Z,1001.06
2022-10-04T00:23:34.118Z,1001.03
2022-10-04T00:24:34.127Z,1001.01
2022-10-04T00:25:34.078Z,1001.04
2022-10-04T00:26:34.079Z,1001.04
2022-10-04T00:27:34.061Z,1001.02
2022-10-04T00:28:34.165Z,1001.13
2022-10-04T00:29:34.040Z,1001.10
2022-10-04T00:30:34.065Z,1001.06
2022-10-04T00:31:34.074Z,1001.08
2022-10-04T00:32:34.018Z,1001.04
2022-10-04T00:33:34.010Z,1001.09
2022-10-04T00:34:34.002Z,1001.08
2022-10-04T00:35:33.984Z,1001.08
2022-10-04T00:36:34.021Z,1001.04
2022-10-04T00:37:33.970Z,1001.08
2022-10-04T00:38:33.958Z,1001.07
2022-10-04T00:39:33.942Z,1001.06
2022-10-04T00:40:33.930Z,1001.02
2022-10-04T00:41:33.922Z,1001.06
2022-10-04T00:42:33.957Z,1001.03
2022-10-04T00:43:33.902Z,1001.13
2022-10-04T00:44:33.900Z,1001.10
2022-10-04T00:45:33.885Z,1001.14
2022-10-04T00:46:33.898Z,1001.15
2022-10-04T00:47:33.864Z,1001.10
2022-10-04T00:48:33.891Z,1001.10
2022-10-04T00:49:33.843Z,1001.07
2022-10-04T00:50:33.851Z,1001.08
2022-10-04T00:51:33.824Z,1001.04
2022-10-04T00:52:33.812Z,1001.06
2022-10-04T00:53:33.801Z,1001.07
2022-10-04T00:54:33.836Z,1001.04
2022-10-04T00:55:33.783Z,1001.03
2022-10-04T00:56:33.773Z,1001.04
2022-10-04T00:57:33.762Z,1001.03
2022-10-04T00:58:33.761Z,1001.03
2022-10-04T00:59:33.750Z,1000.99
2022-10-04T01:00:33.773Z,1001.01
2022-10-04T01:01:33.784Z,1001.06
2022-10-04T01:02:33.791Z,1001.02
2022-10-04T01:03:33.708Z,1001.03
2022-10-04T01:04:33.702Z,1001.10
2022-10-04T01:05:33.684Z,1001.07
2022-10-04T01:06:33.704Z,1001.04
2022-10-04T01:07:33.664Z,1001.06
2022-10-04T01:08:33.661Z,1001.09
2022-10-04T01:09:33.650Z,1001.06
2022-10-04T01:10:33.634Z,1000.99
2022-10-04T01:11:33.642Z,1001.01
2022-10-04T01:12:33.654Z,1000.98
2022-10-04T01:13:33.605Z,1000.97
2022-10-04T01:14:33.598Z,1001.00
2022-10-04T01:15:33.687Z,1000.99
2022-10-04T01:16:33.591Z,1001.03
2022-10-04T01:17:33.566Z,1001.04
2022-10-04T01:18:33.594Z,1001.04
2022-10-04T01:19:33.548Z,1001.08
2022-10-04T01:20:33.536Z,1001.08
2022-10-04T01:21:33.527Z,1001.10
2022-10-04T01:22:33.517Z,1001.12
2022-10-04T01:23:33.506Z,1001.11
2022-10-04T01:24:33.524Z,1001.12
2022-10-04T01:25:33.488Z,1001.03
2022-10-04T01:26:33.486Z,1001.11
2022-10-04T01:27:33.464Z,1001.02
2022-10-04T01:28:33.512Z,1001.02
2022-10-04T01:29:33.449Z,1001.00
2022-10-04T01:30:33.467Z,1000.97
2022-10-04T01:31:33.511Z,1000.95
2022-10-04T01:32:33.417Z,1000.87
2022-10-04T01:33:33.408Z,1000.89
2022-10-04T01:34:33.397Z,1000.87
2022-10-04T01:35:33.379Z,1000.87
2022-10-04T01:36:33.406Z,1000.85
2022-10-04T01:37:33.367Z,1000.86
2022-10-04T01:38:33.358Z,1000.89
2022-10-04T01:39:33.353Z,1000.90
2022-10-04T01:40:33.338Z,1000.90
2022-10-04T01:41:33.319Z,1000.86
2022-10-04T01:42:33.348Z,1000.90
2022-10-04T01:43:33.306Z,1000.87
2022-10-04T01:44:33.299Z,1000.89
2022-10-04T01:45:33.290Z,1000.88
2022-10-04T01:46:33.336Z,1000.88
2022-10-04T01:47:33.275Z,1000.90
2022-10-04T01:48:33.293Z,1000.86
2022-10-04T01:49:33.240Z,1000.91
2022-10-04T01:50:33.241Z,1000.85
2022-10-04T01:51:33.231Z,1000.88
2022-10-04T01:52:33.209Z,1000.93
2022-10-04T01:53:33.211Z,1000.92
2022-10-04T01:54:33.228Z,1000.94
2022-10-04T01:55:33.182Z,1000.92
2022-10-04T01:56:33.183Z,1000.89
2022-10-04T01:57:33.171Z,1000.94
2022-10-04T01:58:33.161Z,1000.91
2022-10-04T01:59:33.150Z,1000.93
2022-10-04T02:00:33.171Z,1000.87
2022-10-04T02:01:33.158Z,1000.90
2022-10-04T02:02:33.123Z,1000.91
2022-10-04T02:03:33.164Z,1000.93
2022-10-04T02:04:33.225Z,1000.94
2022-10-04T02:05:33.082Z,1000.90
2022-10-04T02:06:33.113Z,1000.90
2022-10-04T02:07:33.064Z,1000.93
2022-10-04T02:08:33.062Z,1000.90
2022-10-04T02:09:33.052Z,1000.95
2022-10-04T02:10:33.034Z,1000.94
2022-10-04T02:11:33.036Z,1000.97
2022-10-04T02:12:33.044Z,1001.00
2022-10-04T02:13:33.015Z,1000.95
2022-10-04T02:14:32.994Z,1000.99
2022-10-04T02:15:32.995Z,1000.97
2022-10-04T02:16:33.015Z,1001.01
2022-10-04T02:17:32.976Z,1000.99
2022-10-04T02:18:32.986Z,1000.97
2022-10-04T02:19:32.957Z,1000.91
2022-10-04T02:20:32.938Z,1000.91
2022-10-04T02:21:32.931Z,1000.90
2022-10-04T02:22:32.923Z,1000.94
2022-10-04T02:23:32.916Z,1000.93
2022-10-04T02:24:32.925Z,1000.93
2022-10-04T02:25:32.886Z,1000.90
2022-10-04T02:26:32.874Z,1000.98
2022-10-04T02:27:32.865Z,1000.89
2022-10-04T02:28:32.895Z,1000.95
2022-10-04T02:29:32.853Z,1000.90
2022-10-04T02:30:32.858Z,1000.90
2022-10-04T02:31:32.916Z,1000.95
2022-10-04T02:32:32.817Z,1000.91
2022-10-04T02:33:32.806Z,1000.93
2022-10-04T02:34:32.795Z,1000.91
2022-10-04T02:35:32.787Z,1000.95
2022-10-04T02:36:32.796Z,1000.92
2022-10-04T02:37:32.773Z,1000.91
2022-10-04T02:38:32.757Z,1000.89
2022-10-04T02:39:32.747Z,1000.91
2022-10-04T02:40:32.739Z,1000.88
2022-10-04T02:41:32.727Z,1000.87
2022-10-04T02:42:32.747Z,1000.90
2022-10-04T02:43:33.069Z,1000.84
2022-10-04T02:44:32.696Z,1000.92
2022-10-04T02:45:32.688Z,1000.86
2022-10-04T02:46:32.753Z,1000.87
2022-10-04T02:47:32.668Z,1000.83
2022-10-04T02:48:32.679Z,1000.82
2022-10-04T02:49:32.647Z,1000.79
2022-10-04T02:50:32.637Z,1000.84
2022-10-04T02:51:32.640Z,1000.76
2022-10-04T02:52:32.667Z,1000.74
2022-10-04T02:53:32.618Z,1000.73
2022-10-04T02:54:32.629Z,1000.75
2022-10-04T02:55:32.590Z,1000.72
2022-10-04T02:56:32.577Z,1000.71
2022-10-04T02:57:32.575Z,1000.70
2022-10-04T02:58:32.551Z,1000.72
2022-10-04T02:59:35.360Z,1000.69
2022-10-04T03:00:32.561Z,1000.74
2022-10-04T03:01:32.530Z,1000.74
2022-10-04T03:02:32.559Z,1000.70
2022-10-04T03:03:32.549Z,1000.77
2022-10-04T03:04:32.502Z,1000.74
2022-10-04T03:05:32.489Z,1000.73
2022-10-04T03:06:32.502Z,1000.73
2022-10-04T03:07:32.471Z,1000.75
2022-10-04T03:08:32.452Z,1000.79
2022-10-04T03:09:32.452Z,1000.73
2022-10-04T03:10:32.446Z,1000.67
2022-10-04T03:11:32.504Z,1000.74
2022-10-04T03:12:32.453Z,1000.75
2022-10-04T03:13:32.407Z,1000.81
2022-10-04T03:14:32.391Z,1000.82
2022-10-04T03:15:32.390Z,1000.75
2022-10-04T03:16:32.406Z,1000.75
2022-10-04T03:17:32.363Z,1000.73
2022-10-04T03:18:32.390Z,1000.66
2022-10-04T03:19:32.353Z,1000.65
2022-10-04T03:20:32.333Z,1000.66
2022-10-04T03:21:32.334Z,1000.65
2022-10-04T03:22:32.313Z,1000.60
2022-10-04T03:23:32.314Z,1000.59
2022-10-04T03:24:32.342Z,1000.62
2022-10-04T03:25:32.283Z,1000.58
2022-10-04T03:26:32.277Z,1000.56
2022-10-04T03:27:32.274Z,1000.54
2022-10-04T03:28:32.358Z,1000.53
2022-10-04T03:29:32.247Z,1000.55
2022-10-04T03:30:32.265Z,1000.55
2022-10-04T03:31:32.257Z,1000.52
2022-10-04T03:32:32.215Z,1000.51
2022-10-04T03:33:32.205Z,1000.55
2022-10-04T03:34:32.193Z,1000.54
2022-10-04T03:35:32.186Z,1000.60
2022-10-04T03:36:32.204Z,1000.53
2022-10-04T03:37:32.178Z,1000.59
2022-10-04T03:38:32.157Z,1000.60
2022-10-04T03:39:32.153Z,1000.62
2022-10-04T03:40:32.135Z,1000.60
2022-10-04T03:41:32.132Z,1000.59
2022-10-04T03:42:32.147Z,1000.56
2022-10-04T03:43:32.117Z,1000.61
2022-10-04T03:44:32.095Z,1000.63
2022-10-04T03:45:32.109Z,1000.60
2022-10-04T03:46:32.081Z,1000.62
2022-10-04T03:47:32.066Z,1000.61
2022-10-04T03:48:32.087Z,1000.57
2022-10-04T03:49:32.046Z,1000.57
2022-10-04T03:50:32.039Z,1000.51
2022-10-04T03:51:32.034Z,1000.51
2022-10-04T03:52:32.017Z,1000.47
2022-10-04T03:53:32.011Z,1000.49
2022-10-04T03:54:32.019Z,1000.52
2022-10-04T03:55:32.006Z,1000.50
2022-10-04T03:56:31.969Z,1000.47
2022-10-04T03:57:31.970Z,1000.44
2022-10-04T03:58:31.958Z,1000.43
2022-10-04T03:59:31.948Z,1000.46
2022-10-04T04:00:31.961Z,1000.47
2022-10-04T04:01:31.960Z,1000.46
2022-10-04T04:02:32.005Z,1000.52
2022-10-04T04:03:31.909Z,1000.47
2022-10-04T04:04:31.896Z,1000.45
2022-10-04T04:05:31.890Z,1000.38
2022-10-04T04:06:31.899Z,1000.38
2022-10-04T04:07:31.868Z,1000.38
2022-10-04T04:08:31.861Z,1000.34
2022-10-04T04:09:31.848Z,1000.33
2022-10-04T04:10:31.829Z,1000.31
2022-10-04T04:11:31.831Z,1000.27
2022-10-04T04:12:31.840Z,1000.26
2022-10-04T04:13:31.809Z,1000.27
2022-10-04T04:14:31.800Z,1000.25
2022-10-04T04:15:31.791Z,1000.22
2022-10-04T04:16:31.902Z,1000.17
2022-10-04T04:17:31.772Z,1000.20
2022-10-04T04:18:31.781Z,1000.16
2022-10-04T04:19:31.748Z,1000.12
2022-10-04T04:20:31.733Z,1000.17
2022-10-04T04:21:31.720Z,1000.13
2022-10-04T04:22:31.719Z,1000.12
2022-10-04T04:23:31.711Z,1000.15
2022-10-04T04:24:31.722Z,1000.15
2022-10-04T04:25:31.692Z,1000.18
2022-10-04T04:26:31.671Z,1000.23
2022-10-04T04:27:31.662Z,1000.19
2022-10-04T04:28:31.710Z,1000.18
2022-10-04T04:29:31.664Z,1000.24
2022-10-04T04:30:31.704Z,1000.17
2022-10-04T04:31:31.669Z,1000.17
2022-10-04T04:32:31.613Z,1000.22
2022-10-04T04:33:31.613Z,1000.12
2022-10-04T04:34:31.593Z,1000.09
2022-10-04T04:35:31.583Z,1000.09
2022-10-04T04:36:31.611Z,1000.10
2022-10-04T04:37:31.573Z,1000.08
2022-10-04T04:38:31.550Z,1000.05
2022-10-04T04:39:31.555Z,1000.07
2022-10-04T04:40:31.534Z,1000.08
2022-10-04T04:41:31.529Z,1000.10
2022-10-04T04:42:31.534Z,1000.06
2022-10-04T04:43:31.505Z,1000.09
2022-10-04T04:44:31.495Z,1000.06
2022-10-04T04:45:31.559Z,1000.07
2022-10-04T04:46:31.554Z,1000.08
2022-10-04T04:47:31.465Z,1000.10
2022-10-04T04:48:31.483Z,1000.06
2022-10-04T04:49:31.452Z,1000.09
2022-10-04T04:50:31.432Z,1000.11
2022-10-04T04:51:31.433Z,1000.09
2022-10-04T04:52:31.414Z,1000.04
2022-10-04T04:53:31.406Z,1000.05
2022-10-04T04:54:31.382Z,1000.06
2022-10-04T04:55:40.055Z,1000.07
2022-10-04T04:56:32.325Z,1000.03
2022-10-04T04:57:31.337Z,1000.03
2022-10-04T04:58:31.308Z,1000.02
2022-10-04T04:59:31.347Z,1000.03
2022-10-04T05:00:31.306Z,1000.06
2022-10-04T05:01:31.332Z,1000.03
2022-10-04T05:02:31.309Z,1000.00
2022-10-04T05:03:31.256Z,1000.03
2022-10-04T05:04:31.254Z,999.99
2022-10-04T05:05:31.228Z,1000.01
2022-10-04T05:06:31.257Z,1000.02
2022-10-04T05:07:31.226Z,999.99
2022-10-04T05:08:31.197Z,999.98
2022-10-04T05:09:31.197Z,1000.00
2022-10-04T05:10:31.186Z,1000.03
2022-10-04T05:11:31.184Z,1000.00
2022-10-04T05:12:31.187Z,999.99
2022-10-04T05:13:31.158Z,999.95
2022-10-04T05:14:31.146Z,999.95
2022-10-04T05:15:31.128Z,999.93
2022-10-04T05:16:31.200Z,999.95
2022-10-04T05:17:31.113Z,999.93
2022-10-04T05:18:31.148Z,999.97
2022-10-04T05:19:31.104Z,999.98
2022-10-04T05:20:31.079Z,999.94
2022-10-04T05:21:31.077Z,999.95
2022-10-04T05:22:31.060Z,999.94
2022-10-04T05:23:31.056Z,999.95
2022-10-04T05:24:31.208Z,999.93
2022-10-04T05:25:31.031Z,999.95
2022-10-04T05:26:31.029Z,999.93
2022-10-04T05:27:31.018Z,999.93
2022-10-04T05:28:31.029Z,999.91
2022-10-04T05:29:31.000Z,999.98
2022-10-04T05:30:31.000Z,999.91
2022-10-04T05:31:31.042Z,999.94
2022-10-04T05:32:30.960Z,999.89
2022-10-04T05:33:33.862Z,999.90
2022-10-04T05:34:30.941Z,999.87
2022-10-04T05:35:30.931Z,999.86
2022-10-04T05:36:30.962Z,999.89
2022-10-04T05:37:30.910Z,999.93
2022-10-04T05:38:30.901Z,999.90
2022-10-04T05:39:30.899Z,999.87
2022-10-04T05:40:30.887Z,999.86
2022-10-04T05:41:33.490Z,999.82
2022-10-04T05:42:30.882Z,999.78
2022-10-04T05:43:30.854Z,999.80
2022-10-04T05:44:30.844Z,999.78
2022-10-04T05:45:30.902Z,999.78
2022-10-04T05:46:30.822Z,999.80
2022-10-04T05:47:30.822Z,999.75
2022-10-04T05:48:30.832Z,999.71
2022-10-04T05:49:30.792Z,999.70
2022-10-04T05:50:30.774Z,999.76
2022-10-04T05:51:30.777Z,999.71
2022-10-04T05:52:30.761Z,999.72
2022-10-04T05:53:30.754Z,999.69
2022-10-04T05:54:30.773Z,999.74
2022-10-04T05:55:30.732Z,999.70
2022-10-04T05:56:30.723Z,999.71
2022-10-04T05:57:30.723Z,999.74
2022-10-04T05:58:30.703Z,999.73
2022-10-04T05:59:30.694Z,999.74
2022-10-04T06:00:30.984Z,999.72
2022-10-04T06:01:30.750Z,999.74
2022-10-04T06:02:30.731Z,999.72
2022-10-04T06:03:30.654Z,999.72
2022-10-04T06:04:30.636Z,999.68
2022-10-04T06:05:30.635Z,999.66
2022-10-04T06:06:30.643Z,999.66
2022-10-04T06:07:30.614Z,999.68
2022-10-04T06:08:30.602Z,999.68
2022-10-04T06:09:30.597Z,999.63
2022-10-04T06:10:30.587Z,999.65
2022-10-04T06:11:30.574Z,999.67
2022-10-04T06:12:30.593Z,999.68
2022-10-04T06:13:30.557Z,999.70
2022-10-04T06:14:30.548Z,999.72
2022-10-04T06:15:30.536Z,999.70
2022-10-04T06:16:30.561Z,999.71
2022-10-04T06:17:30.517Z,999.69
2022-10-04T06:18:30.524Z,999.74
2022-10-04T06:19:30.497Z,999.67
2022-10-04T06:20:30.629Z,999.70
2022-10-04T06:21:30.477Z,999.69
2022-10-04T06:22:30.474Z,999.70
2022-10-04T06:23:30.458Z,999.66
2022-10-04T06:24:30.488Z,999.67
2022-10-04T06:25:30.437Z,999.70
2022-10-04T06:26:30.428Z,999.71
2022-10-04T06:27:30.419Z,999.69
2022-10-04T06:28:30.481Z,999.67
2022-10-04T06:29:30.388Z,999.67
2022-10-04T06:30:30.496Z,999.64
2022-10-04T06:31:30.369Z,999.63
2022-10-04T06:32:30.369Z,999.68
2022-10-04T06:33:30.350Z,999.64
2022-10-04T06:34:30.347Z,999.62
2022-10-04T06:35:30.339Z,999.65
2022-10-04T06:36:30.368Z,999.65
2022-10-04T06:37:30.367Z,999.65
2022-10-04T06:38:30.440Z,999.72
2022-10-04T06:39:30.303Z,999.69
2022-10-04T06:40:30.288Z,999.68
2022-10-04T06:41:30.270Z,999.69
2022-10-04T06:42:30.302Z,999.69
2022-10-04T06:43:30.252Z,999.69
2022-10-04T06:44:30.241Z,999.69
2022-10-04T06:45:30.242Z,999.68
2022-10-04T06:46:30.339Z,999.74
2022-10-04T06:47:30.216Z,999.70
2022-10-04T06:48:30.277Z,999.73
2022-10-04T06:49:30.214Z,999.75
2022-10-04T06:50:30.201Z,999.71
2022-10-04T06:51:30.183Z,999.75
2022-10-04T06:52:30.177Z,999.77
2022-10-04T06:53:30.159Z,999.74
2022-10-04T06:54:30.181Z,999.77
2022-10-04T06:55:30.133Z,999.71
2022-10-04T06:56:30.141Z,999.71
2022-10-04T06:57:30.113Z,999.65
2022-10-04T06:58:30.103Z,999.69
2022-10-04T06:59:30.094Z,999.68
2022-10-04T07:00:30.122Z,999.73
2022-10-04T07:01:30.096Z,999.68
2022-10-04T07:02:30.120Z,999.62
2022-10-04T07:03:30.054Z,999.65
2022-10-04T07:04:41.155Z,999.62
2022-10-04T07:05:31.063Z,999.65
2022-10-04T07:06:30.025Z,999.63
2022-10-04T07:07:30.005Z,999.61
2022-10-04T07:08:30.005Z,999.61
2022-10-04T07:09:29.994Z,999.55
2022-10-04T07:10:29.984Z,999.52
2022-10-04T07:11:30.009Z,999.44
2022-10-04T07:12:29.973Z,999.49
2022-10-04T07:13:29.952Z,999.49
2022-10-04T07:14:29.947Z,999.51
2022-10-04T07:15:29.944Z,999.45
2022-10-04T07:16:29.927Z,999.46
2022-10-04T07:17:29.946Z,999.42
2022-10-04T07:18:29.897Z,999.40
2022-10-04T07:19:29.894Z,999.48
2022-10-04T07:20:29.886Z,999.37
2022-10-04T07:21:29.868Z,999.41
2022-10-04T07:22:29.876Z,999.49
2022-10-04T07:23:29.877Z,999.48
2022-10-04T07:24:29.838Z,999.47
2022-10-04T07:25:29.830Z,999.48
2022-10-04T07:26:29.823Z,999.48
2022-10-04T07:27:29.805Z,999.49
2022-10-04T07:28:29.864Z,999.51
2022-10-04T07:29:29.809Z,999.52
2022-10-04T07:30:29.779Z,999.54
2022-10-04T07:31:29.818Z,999.52
2022-10-04T07:32:29.762Z,999.53
2022-10-04T07:33:29.778Z,999.52
2022-10-04T07:34:29.747Z,999.47
2022-10-04T07:35:29.763Z,999.53
2022-10-04T07:36:29.720Z,999.52
2022-10-04T07:37:30.428Z,999.53
2022-10-04T07:38:30.458Z,999.52
2022-10-04T07:39:29.681Z,999.51
2022-10-04T07:40:29.681Z,999.56
2022-10-04T07:41:29.717Z,999.55
2022-10-04T07:42:29.662Z,999.53
2022-10-04T07:43:29.671Z,999.52
2022-10-04T07:44:29.643Z,999.52
2022-10-04T07:45:30.270Z,999.51
2022-10-04T07:46:29.700Z,999.49
2022-10-04T07:47:29.640Z,999.50
2022-10-04T07:48:29.602Z,999.48
2022-10-04T07:49:30.323Z,999.46
2022-10-04T07:50:29.584Z,999.44
2022-10-04T07:51:29.569Z,999.46
2022-10-04T07:52:29.650Z,999.42
2022-10-04T07:53:29.587Z,999.44
2022-10-04T07:54:29.543Z,999.39
2022-10-04T07:55:30.226Z,999.44
2022-10-04T07:56:30.214Z,999.40
2022-10-04T07:57:29.509Z,999.43
2022-10-04T07:58:29.502Z,999.34
2022-10-04T07:59:29.969Z,999.36
2022-10-04T08:00:29.482Z,999.34
2022-10-04T08:01:29.493Z,999.30
2022-10-04T08:02:31.305Z,999.35
2022-10-04T08:03:29.511Z,999.36
2022-10-04T08:04:29.444Z,999.33
2022-10-04T08:05:29.452Z,999.32
2022-10-04T08:06:29.424Z,999.29
2022-10-04T08:07:29.413Z,999.32
2022-10-04T08:08:29.413Z,999.32
2022-10-04T08:09:29.384Z,999.38
2022-10-04T08:10:29.381Z,999.34
2022-10-04T08:11:29.409Z,999.34
2022-10-04T08:12:29.391Z,999.35
2022-10-04T08:13:29.347Z,999.34
2022-10-04T08:14:29.336Z,999.34
2022-10-04T08:15:29.397Z,999.25
2022-10-04T08:16:29.320Z,999.34
2022-10-04T08:17:29.346Z,999.30
2022-10-04T08:18:29.304Z,999.31
2022-10-04T08:19:29.284Z,999.29
2022-10-04T08:20:29.277Z,999.30
2022-10-04T08:21:29.268Z,999.30
2022-10-04T08:22:29.259Z,999.36
2022-10-04T08:23:29.267Z,999.33
2022-10-04T08:24:29.238Z,999.34
2022-10-04T08:25:29.225Z,999.36
2022-10-04T08:26:29.210Z,999.39
2022-10-04T08:27:29.208Z,999.27
2022-10-04T08:28:29.242Z,999.30
2022-10-04T08:29:29.218Z,999.26
2022-10-04T08:30:29.182Z,999.30
2022-10-04T08:31:29.222Z,999.26
2022-10-04T08:32:29.199Z,999.31
2022-10-04T08:33:29.150Z,999.26
2022-10-04T08:34:29.143Z,999.28
2022-10-04T08:35:29.162Z,999.29
2022-10-04T08:36:29.115Z,999.31
2022-10-04T08:37:29.102Z,999.28
2022-10-04T08:38:29.099Z,999.27
2022-10-04T08:39:29.082Z,999.28
2022-10-04T08:40:29.080Z,999.28
2022-10-04T08:41:29.167Z,999.26
2022-10-04T08:42:29.061Z,999.24
2022-10-04T08:43:29.043Z,999.26
2022-10-04T08:44:29.032Z,999.27
2022-10-04T08:45:29.022Z,999.28
2022-10-04T08:46:29.125Z,999.30
2022-10-04T08:47:29.030Z,999.24
2022-10-04T08:48:28.994Z,999.28
2022-10-04T08:49:28.984Z,999.30
2022-10-04T08:50:28.983Z,999.27
2022-10-04T08:51:28.964Z,999.27
2022-10-04T08:52:28.955Z,999.22
2022-10-04T08:53:28.966Z,999.16
2022-10-04T08:54:28.928Z,999.21
2022-10-04T08:55:28.917Z,999.17
2022-10-04T08:56:29.855Z,999.15
2022-10-04T08:57:28.904Z,999.12
2022-10-04T08:58:28.893Z,999.13
2022-10-04T08:59:28.907Z,999.08
2022-10-04T09:00:28.874Z,999.07
2022-10-04T09:01:28.959Z,999.02
2022-10-04T09:02:28.917Z,999.02
2022-10-04T09:03:28.837Z,998.99
2022-10-04T09:04:28.829Z,998.97
2022-10-04T09:05:28.847Z,998.93
2022-10-04T09:06:28.840Z,998.91
2022-10-04T09:07:28.797Z,998.94
2022-10-04T09:08:28.790Z,998.89
2022-10-04T09:09:28.787Z,998.96
2022-10-04T09:10:28.769Z,998.94
2022-10-04T09:11:28.788Z,998.89
2022-10-04T09:12:29.018Z,998.91
2022-10-04T09:13:28.728Z,998.86
2022-10-04T09:14:28.727Z,998.85
2022-10-04T09:15:28.779Z,998.83
2022-10-04T09:16:28.753Z,998.81
2022-10-04T09:17:28.740Z,998.81
2022-10-04T09:18:28.683Z,998.82
2022-10-04T09:19:28.669Z,998.77
2022-10-04T09:20:39.767Z,998.81
2022-10-04T09:21:29.641Z,998.79
2022-10-04T09:22:28.766Z,998.77
2022-10-04T09:23:28.781Z,998.78
2022-10-04T09:24:28.662Z,998.74
2022-10-04T09:25:28.660Z,998.73
2022-10-04T09:26:28.659Z,998.76
2022-10-04T09:27:53.525Z,998.73
2022-10-04T09:28:29.797Z,998.74
2022-10-04T09:29:28.674Z,998.67
2022-10-04T09:30:28.693Z,998.66
2022-10-04T09:31:28.657Z,998.66
2022-10-04T09:32:28.542Z,998.70
2022-10-04T09:33:28.606Z,998.66
2022-10-04T09:34:28.683Z,998.62
2022-10-04T09:35:28.687Z,998.58
2022-10-04T09:36:28.624Z,998.57
2022-10-04T09:37:28.634Z,998.55
2022-10-04T09:38:28.518Z,998.57
2022-10-04T09:39:31.027Z,998.55
2022-10-04T09:40:28.648Z,998.53
2022-10-04T09:41:28.737Z,998.53
2022-10-04T09:42:28.515Z,998.56
2022-10-04T09:43:28.755Z,998.57
2022-10-04T09:44:28.417Z,998.53
2022-10-04T09:45:28.456Z,998.55
2022-10-04T09:46:28.522Z,998.57
2022-10-04T09:47:28.407Z,998.54
2022-10-04T09:48:28.381Z,998.52
2022-10-04T09:49:28.440Z,998.53
2022-10-04T09:50:28.357Z,998.54
2022-10-04T09:51:28.351Z,998.55
2022-10-04T09:52:28.361Z,998.50
2022-10-04T09:53:28.332Z,998.52
2022-10-04T09:54:28.315Z,998.50
2022-10-04T09:55:28.299Z,998.47
2022-10-04T09:56:28.297Z,998.48
2022-10-04T09:57:28.289Z,998.44
2022-10-04T09:58:28.301Z,998.44
2022-10-04T09:59:28.261Z,998.48
2022-10-04T10:00:28.260Z,998.49
2022-10-04T10:01:28.368Z,998.49
2022-10-04T10:02:28.284Z,998.45
2022-10-04T10:03:28.224Z,998.43
2022-10-04T10:04:28.249Z,998.42
2022-10-04T10:05:28.207Z,998.49
2022-10-04T10:06:28.212Z,998.48
2022-10-04T10:07:28.182Z,998.45
2022-10-04T10:08:28.552Z,998.47
2022-10-04T10:09:28.212Z,998.36
2022-10-04T10:10:28.184Z,998.41
2022-10-04T10:11:28.154Z,998.39
2022-10-04T10:12:28.141Z,998.41
2022-10-04T10:13:31.897Z,998.39
2022-10-04T10:14:28.112Z,998.41
2022-10-04T10:15:28.117Z,998.43
2022-10-04T10:16:28.225Z,998.42
2022-10-04T10:17:28.074Z,998.37
2022-10-04T10:18:28.065Z,998.39
2022-10-04T10:19:28.527Z,998.37
2022-10-04T10:20:28.053Z,998.41
2022-10-04T10:21:28.725Z,998.44
2022-10-04T10:22:28.055Z,998.44
2022-10-04T10:23:28.021Z,998.44
2022-10-04T10:24:28.007Z,998.43
2022-10-04T10:25:27.997Z,998.43
2022-10-04T10:26:27.988Z,998.42
2022-10-04T10:27:27.978Z,998.43
2022-10-04T10:28:28.088Z,998.40
2022-10-04T10:29:28.003Z,998.43
2022-10-04T10:30:27.967Z,998.44
2022-10-04T10:31:28.022Z,998.44
2022-10-04T10:32:27.918Z,998.44
2022-10-04T10:33:27.919Z,998.39
2022-10-04T10:34:27.939Z,998.42
2022-10-04T10:35:27.888Z,998.45
2022-10-04T10:36:27.880Z,998.45
2022-10-04T10:37:27.870Z,998.38
2022-10-04T10:38:27.862Z,998.42
2022-10-04T10:39:27.851Z,998.42
2022-10-04T10:40:27.872Z,998.43
2022-10-04T10:41:27.831Z,998.42
2022-10-04T10:42:27.838Z,998.41
2022-10-04T10:43:27.820Z,998.41
2022-10-04T10:44:27.804Z,998.40
2022-10-04T10:45:27.795Z,998.35
2022-10-04T10:46:27.876Z,998.39
2022-10-04T10:47:27.773Z,998.40
2022-10-04T10:48:27.754Z,998.38
2022-10-04T10:49:27.752Z,998.36
2022-10-04T10:50:27.731Z,998.34
2022-10-04T10:51:27.814Z,998.34
2022-10-04T10:52:27.744Z,998.36
2022-10-04T10:53:27.713Z,998.33
2022-10-04T10:54:27.693Z,998.34
2022-10-04T10:55:27.684Z,998.34
2022-10-04T10:56:30.202Z,998.32
2022-10-04T10:57:27.666Z,998.25
2022-10-04T10:58:27.735Z,998.29
2022-10-04T10:59:27.647Z,998.19
2022-10-04T11:00:27.626Z,998.15
2022-10-04T11:01:27.732Z,998.20
2022-10-04T11:02:47.701Z,998.21
2022-10-04T11:03:32.105Z,998.23
2022-10-04T11:04:27.594Z,998.21
2022-10-04T11:05:27.588Z,998.20
2022-10-04T11:06:27.595Z,998.23
2022-10-04T11:07:27.560Z,998.20
2022-10-04T11:08:27.552Z,998.20
2022-10-04T11:09:27.569Z,998.18
2022-10-04T11:10:27.520Z,998.19
2022-10-04T11:11:27.520Z,998.18
2022-10-04T11:12:27.531Z,998.11
2022-10-04T11:13:27.512Z,998.13
2022-10-04T11:14:27.548Z,998.14
2022-10-04T11:15:27.942Z,998.14
2022-10-04T11:16:27.571Z,998.09
2022-10-04T11:17:27.475Z,998.12
2022-10-04T11:18:27.451Z,998.10
2022-10-04T11:19:27.451Z,998.11
2022-10-04T11:20:27.422Z,998.05
2022-10-04T11:21:27.450Z,998.12
2022-10-04T11:22:28.094Z,998.14
2022-10-04T11:23:27.404Z,998.05
2022-10-04T11:24:27.396Z,998.09
2022-10-04T11:25:27.383Z,998.09
2022-10-04T11:26:27.375Z,998.07
2022-10-04T11:27:27.383Z,998.05
2022-10-04T11:28:28.107Z,998.05
2022-10-04T11:29:27.444Z,998.01
2022-10-04T11:30:27.325Z,997.98
2022-10-04T11:31:27.437Z,997.95
2022-10-04T11:32:27.310Z,997.97
2022-10-04T11:33:27.337Z,997.91
2022-10-04T11:34:27.287Z,997.94
2022-10-04T11:35:27.285Z,997.96
2022-10-04T11:36:27.265Z,997.91
2022-10-04T11:37:27.257Z,997.86
2022-10-04T11:38:27.252Z,997.91
2022-10-04T11:39:27.268Z,997.89
2022-10-04T11:40:27.230Z,997.89
2022-10-04T11:41:27.221Z,997.87
2022-10-04T11:42:27.208Z,997.81
2022-10-04T11:43:27.200Z,997.83
2022-10-04T11:44:27.189Z,997.78
2022-10-04T11:45:27.242Z,997.78
2022-10-04T11:46:27.217Z,997.73
2022-10-04T11:47:27.157Z,997.71
2022-10-04T11:48:27.141Z,997.77
2022-10-04T11:49:27.130Z,997.73
2022-10-04T11:50:27.121Z,997.71
2022-10-04T11:51:27.149Z,997.68
2022-10-04T11:52:27.111Z,997.67
2022-10-04T11:53:27.089Z,997.66
2022-10-04T11:54:27.112Z,997.66
2022-10-04T11:55:27.072Z,997.60
2022-10-04T11:56:27.054Z,997.53
2022-10-04T11:57:27.079Z,997.49
2022-10-04T11:58:27.054Z,997.45
2022-10-04T11:59:27.024Z,997.49
2022-10-04T12:00:27.037Z,997.47
2022-10-04T12:01:26.996Z,997.49
2022-10-04T12:02:26.985Z,997.51
2022-10-04T12:03:27.182Z,997.48
2022-10-04T12:04:27.011Z,997.51
2022-10-04T12:05:26.968Z,997.50
2022-10-04T12:06:26.947Z,997.50
2022-10-04T12:07:26.939Z,997.45
2022-10-04T12:08:26.930Z,997.43
2022-10-04T12:09:26.966Z,997.34
2022-10-04T12:10:26.914Z,997.39
2022-10-04T12:11:26.899Z,997.39
2022-10-04T12:12:26.889Z,997.36
2022-10-04T12:13:26.878Z,997.37
2022-10-04T12:14:26.867Z,997.39
2022-10-04T12:15:26.898Z,997.42
2022-10-04T12:16:26.943Z,997.37
2022-10-04T12:17:26.840Z,997.40
2022-10-04T12:18:26.841Z,997.39